createdAt,value
2022-09-26T00:01:54.559Z,0
2022-09-26T00:08:14.375Z,0
2022-09-26T00:14:37.434Z,0
2022-09-26T00:20:57.373Z,0
2022-09-26T00:27:20.447Z,0
2022-09-26T00:33:40.429Z,0
2022-09-26T00:40:03.374Z,0
2022-09-26T00:46:23.379Z,0
2022-09-26T00:52:46.443Z,0
2022-09-26T00:59:06.437Z,0
2022-09-26T01:05:29.391Z,0
2022-09-26T01:11:49.520Z,0
2022-09-26T01:18:12.349Z,0
2022-09-26T01:24:32.388Z,0
2022-09-26T01:30:55.436Z,0
2022-09-26T01:37:15.436Z,0
2022-09-26T01:43:38.397Z,0
2022-09-26T01:49:58.422Z,0
2022-09-26T01:56:21.430Z,0
2022-09-26T02:02:41.406Z,0
2022-09-26T02:09:04.451Z,0
2022-09-26T02:15:24.348Z,0
2022-09-26T02:21:47.420Z,0
2022-09-26T02:28:07.361Z,0
2022-09-26T02:34:30.448Z,0
2022-09-26T02:40:50.449Z,0
2022-09-26T02:47:13.493Z,0
2022-09-26T02:53:33.454Z,0
2022-09-26T02:59:56.438Z,0
2022-09-26T03:06:16.465Z,0
2022-09-26T03:30:10.318Z,0
2022-09-26T03:36:33.312Z,0
2022-09-26T03:42:53.419Z,0
2022-09-26T03:49:16.350Z,0
2022-09-26T03:55:36.443Z,0
2022-09-26T04:01:59.407Z,0
2022-09-26T04:08:19.330Z,0
2022-09-26T04:14:42.405Z,0
2022-09-26T04:21:04.789Z,0
2022-09-26T04:27:25.502Z,0
2022-09-26T04:33:45.359Z,0
2022-09-26T04:40:08.321Z,0
2022-09-26T04:46:30.880Z,0
2022-09-26T04:52:51.309Z,1
2022-09-26T04:59:11.402Z,1
2022-09-26T05:05:34.412Z,3
2022-09-26T05:11:54.415Z,9
2022-09-26T05:18:17.404Z,23
2022-09-26T05:24:37.339Z,54
2022-09-26T05:31:00.458Z,87
2022-09-26T05:37:20.330Z,127
2022-09-26T05:43:43.481Z,181
2022-09-26T05:50:03.452Z,259
2022-09-26T05:56:26.348Z,340
2022-09-26T06:02:46.410Z,398
2022-09-26T06:09:09.344Z,413
2022-09-26T06:15:29.417Z,399
2022-09-26T06:21:52.552Z,393
2022-09-26T06:28:12.396Z,512
2022-09-26T06:34:35.364Z,651
2022-09-26T06:40:55.556Z,829
2022-09-26T06:47:18.403Z,848
2022-09-26T06:53:38.439Z,846
2022-09-26T07:00:01.418Z,1311
2022-09-26T07:06:21.461Z,1594
2022-09-26T07:12:44.379Z,1659
2022-09-26T07:19:04.423Z,1944
2022-09-26T07:25:27.411Z,2654
2022-09-26T07:31:47.487Z,2858
2022-09-26T07:38:10.435Z,2442
2022-09-26T07:45:09.626Z,2169
2022-09-26T07:50:53.341Z,2131
2022-09-26T07:57:13.445Z,2167
2022-09-26T08:03:36.399Z,2411
2022-09-26T08:09:56.460Z,2749
2022-09-26T08:16:19.557Z,3073
2022-09-26T08:22:39.381Z,2716
2022-09-26T08:38:13.269Z,1789
2022-09-26T08:44:33.328Z,1836
2022-09-26T08:50:56.316Z,1639
2022-09-26T08:57:16.395Z,1598
2022-09-26T09:03:39.351Z,1793
2022-09-26T09:09:59.464Z,1845
2022-09-26T09:16:22.499Z,1861
2022-09-26T09:22:42.353Z,1933
2022-09-26T09:29:10.286Z,1762
2022-09-26T09:35:25.557Z,1544
2022-09-26T09:41:48.600Z,1324
2022-09-26T09:48:08.318Z,1573
2022-09-26T09:54:31.417Z,1394
2022-09-26T10:00:54.376Z,1284
2022-09-26T10:07:17.409Z,1240
2022-09-26T10:13:37.441Z,1249
2022-09-26T10:20:00.349Z,1204
2022-09-26T10:26:20.381Z,1482
2022-09-26T10:32:43.399Z,1593
2022-09-26T10:39:03.702Z,1630
2022-09-26T10:45:26.355Z,1456
2022-09-26T10:51:46.395Z,1731
2022-09-26T10:58:13.618Z,1855
2022-09-26T11:04:29.385Z,2395
2022-09-26T11:10:52.410Z,1653
2022-09-26T11:17:12.673Z,1955
2022-09-26T11:23:35.366Z,1858
2022-09-26T11:29:55.443Z,2869
2022-09-26T11:36:18.378Z,3453
2022-09-26T11:42:38.354Z,3081
2022-09-26T11:49:01.400Z,3244
2022-09-26T11:55:21.385Z,3267
2022-09-26T12:01:44.333Z,3309
2022-09-26T12:08:04.362Z,3463
2022-09-26T12:14:27.377Z,3457
2022-09-26T12:20:47.454Z,3477
2022-09-26T12:27:10.533Z,3430
2022-09-26T12:33:30.319Z,3493
2022-09-26T12:39:53.410Z,3623
2022-09-26T12:46:13.463Z,3574
2022-09-26T12:52:36.362Z,3057
2022-09-26T12:58:56.424Z,3081
2022-09-26T13:05:19.406Z,2728
2022-09-26T13:11:39.398Z,2884
2022-09-26T13:18:02.491Z,2216
2022-09-26T13:24:22.366Z,1888
2022-09-26T13:47:27.363Z,938
2022-09-26T13:53:50.331Z,799
2022-09-26T14:00:10.370Z,1127
2022-09-26T14:06:33.362Z,671
2022-09-26T14:12:53.387Z,776
2022-09-26T14:19:16.403Z,565
2022-09-26T14:25:36.373Z,713
2022-09-26T14:31:59.418Z,869
2022-09-26T14:38:19.370Z,1299
2022-09-26T14:44:42.391Z,1578
2022-09-26T14:51:02.404Z,1282
2022-09-26T14:57:25.406Z,1077
2022-09-26T15:03:45.410Z,737
2022-09-26T15:10:08.391Z,1079
2022-09-26T15:16:28.506Z,882
2022-09-26T15:22:51.414Z,971
2022-09-26T15:29:11.350Z,939
2022-09-26T15:35:34.432Z,908
2022-09-26T15:41:54.405Z,593
2022-09-26T15:48:17.370Z,682
2022-09-26T15:54:37.370Z,537
2022-09-26T16:01:00.575Z,434
2022-09-26T16:07:20.349Z,534
2022-09-26T16:13:43.374Z,378
2022-09-26T16:20:03.424Z,205
2022-09-26T16:26:26.351Z,186
2022-09-26T16:32:46.383Z,106
2022-09-26T16:39:09.420Z,58
2022-09-26T16:45:29.321Z,60
2022-09-26T16:51:52.380Z,78
2022-09-26T16:58:12.407Z,36
2022-09-26T17:04:35.392Z,22
2022-09-26T17:10:55.349Z,14
2022-09-26T17:17:18.390Z,11
2022-09-26T17:23:41.295Z,6
2022-09-26T17:30:01.351Z,3
2022-09-26T17:36:21.495Z,1
2022-09-26T17:42:44.336Z,0
2022-09-26T17:49:04.347Z,0
2022-09-26T17:55:27.385Z,0
2022-09-26T18:01:47.413Z,0
2022-09-26T18:08:10.395Z,0
2022-09-26T18:14:30.409Z,0
2022-09-26T18:20:53.360Z,0
2022-09-26T18:27:13.396Z,0
2022-09-26T18:33:38.103Z,0
2022-09-26T18:57:18.884Z,0
2022-09-26T19:03:38.345Z,0
2022-09-26T19:10:01.419Z,0
2022-09-26T19:16:21.507Z,0
2022-09-26T19:22:44.335Z,0
2022-09-26T19:29:06.093Z,0
2022-09-26T19:35:27.370Z,0
2022-09-26T19:41:47.366Z,0
2022-09-26T19:48:10.401Z,0
2022-09-26T19:54:30.364Z,0
2022-09-26T20:00:53.381Z,0
2022-09-26T20:07:13.309Z,0
2022-09-26T20:13:36.387Z,0
2022-09-26T20:19:58.806Z,0
2022-09-26T20:26:19.327Z,0
2022-09-26T20:32:39.426Z,0
2022-09-26T20:39:02.336Z,0
2022-09-26T20:45:22.315Z,0
2022-09-26T20:51:45.423Z,0
2022-09-26T20:58:05.303Z,0
2022-09-26T21:04:28.384Z,0
2022-09-26T21:10:48.338Z,0
2022-09-26T21:17:11.386Z,0
2022-09-26T21:23:31.377Z,0
2022-09-26T21:29:54.497Z,0
2022-09-26T21:36:14.388Z,0
2022-09-26T21:42:37.584Z,0
2022-09-26T21:48:57.416Z,0
2022-09-26T21:55:20.352Z,0
2022-09-26T22:20:51.334Z,0
2022-09-26T22:27:11.380Z,0
2022-09-26T22:33:34.320Z,0
2022-09-26T22:39:54.416Z,0
2022-09-26T22:46:17.333Z,0
2022-09-26T22:52:37.344Z,0
2022-09-26T22:59:00.419Z,0
2022-09-26T23:05:20.346Z,0
2022-09-26T23:11:43.404Z,0
2022-09-26T23:18:03.382Z,0
2022-09-26T23:24:26.428Z,0
2022-09-26T23:30:46.373Z,0
2022-09-26T23:37:09.394Z,0
2022-09-26T23:43:29.374Z,0
2022-09-26T23:49:52.339Z,0
2022-09-26T23:56:12.430Z,0
